Time;durP1;ratioP1;P1;durP2;ratioP2;P2;SDS_P1;SDS_P2;PMS_P1;PMS_P2;Temp;Humidity;BMP_temperature;BMP_pressure;BME280_temperature;BME280_humidity;BME280_pressure;Samples;Min_cycle;Max_cycle;Signal;HPM_P1;HPM_P2
2023/09/23 00:01:37;;;;;;;0.50;0.50;;;13.90;99.90;;;;;;6257011;23;20408;-83
2023/09/23 00:04:05;;;;;;;0.40;0.40;;;13.90;99.90;;;;;;6258262;23;20412;-84
2023/09/23 00:06:32;;;;;;;1.77;1.67;;;13.90;99.90;;;;;;6266031;22;20449;-86
2023/09/23 00:09:01;;;;;;;2.17;2.07;;;13.90;99.90;;;;;;6244366;23;20368;-83
2023/09/23 00:11:28;;;;;;;0.40;0.40;;;13.90;99.90;;;;;;6244422;23;20415;-84
2023/09/23 00:13:56;;;;;;;0.50;0.50;;;13.70;99.90;;;;;;6265675;22;20446;-85
2023/09/23 00:16:23;;;;;;;0.40;0.40;;;13.90;99.90;;;;;;6269033;23;20385;-84
2023/09/23 00:18:51;;;;;;;0.47;0.47;;;13.90;99.90;;;;;;6264149;23;20657;-85
2023/09/23 00:21:18;;;;;;;0.40;0.30;;;13.90;99.90;;;;;;6255035;23;20412;-84
2023/09/23 00:23:46;;;;;;;0.40;0.40;;;13.90;99.90;;;;;;6256855;23;20385;-84
2023/09/23 00:26:17;;;;;;;0.60;0.60;;;13.90;99.90;;;;;;6262574;23;20432;-85
2023/09/23 00:28:46;;;;;;;1.57;1.20;;;13.90;99.90;;;;;;6270384;22;20389;-84
2023/09/23 00:31:14;;;;;;;0.50;0.50;;;13.90;99.90;;;;;;6272014;22;20397;-85
2023/09/23 00:33:42;;;;;;;0.60;0.60;;;13.90;99.90;;;;;;6272494;22;20385;-85
2023/09/23 00:36:10;;;;;;;0.90;0.90;;;13.90;99.90;;;;;;6272280;22;20476;-83
2023/09/23 00:38:38;;;;;;;0.40;0.40;;;13.90;99.90;;;;;;6264309;22;20416;-86
2023/09/23 00:41:08;;;;;;;0.57;0.57;;;14.10;99.90;;;;;;6231717;23;20400;-87
2023/09/23 00:43:35;;;;;;;0.40;0.40;;;13.80;99.90;;;;;;6231176;23;20385;-87
2023/09/23 00:46:04;;;;;;;0.50;0.50;;;13.90;99.90;;;;;;6256269;23;20432;-88
2023/09/23 00:48:43;;;;;;;0.60;0.60;;;13.90;99.90;;;;;;6258958;23;20412;-85
2023/09/23 00:51:11;;;;;;;2.00;1.63;;;13.90;99.90;;;;;;6257451;23;20636;-85
2023/09/23 00:53:39;;;;;;;0.97;0.97;;;13.90;99.90;;;;;;6260355;23;20393;-87
2023/09/23 00:56:11;;;;;;;0.43;0.43;;;13.90;99.90;;;;;;6259379;23;20404;-86
2023/09/23 00:58:42;;;;;;;0.80;0.50;;;13.90;99.90;;;;;;6234661;23;20370;-87
2023/09/23 01:01:10;;;;;;;0.53;0.53;;;13.80;99.90;;;;;;6258539;23;20393;-86
2023/09/23 01:03:39;;;;;;;1.30;1.30;;;13.90;99.90;;;;;;6259879;23;20476;-86
2023/09/23 01:06:16;;;;;;;0.40;0.40;;;13.90;99.90;;;;;;6262048;23;20432;-87
2023/09/23 01:08:45;;;;;;;1.07;1.07;;;13.90;99.90;;;;;;6262282;23;20668;-87
2023/09/23 01:11:17;;;;;;;0.40;0.37;;;13.90;99.90;;;;;;6262565;23;20452;-88
2023/09/23 01:13:49;;;;;;;2.87;2.67;;;13.80;99.90;;;;;;6235118;23;20389;-88
2023/09/23 01:16:18;;;;;;;0.43;0.40;;;13.80;99.90;;;;;;6262156;23;20366;-88
2023/09/23 01:18:45;;;;;;;2.00;1.90;;;13.90;99.90;;;;;;6257374;23;20780;-85
2023/09/23 01:21:13;;;;;;;0.40;0.40;;;13.80;99.90;;;;;;6256546;23;20404;-85
2023/09/23 01:23:43;;;;;;;2.50;2.40;;;13.80;99.90;;;;;;6255389;23;20396;-84
2023/09/23 01:26:14;;;;;;;0.40;0.40;;;13.70;99.90;;;;;;6255536;23;20417;-82
2023/09/23 01:28:41;;;;;;;0.40;0.37;;;13.70;99.90;;;;;;6255093;23;20439;-83
2023/09/23 01:31:08;;;;;;;2.53;2.33;;;13.70;99.90;;;;;;6254368;23;20415;-83
2023/09/23 01:33:36;;;;;;;0.63;0.63;;;13.70;99.90;;;;;;6253317;23;20389;-82
2023/09/23 01:36:04;;;;;;;0.40;0.40;;;13.80;99.90;;;;;;6252818;23;20397;-82
2023/09/23 01:38:32;;;;;;;0.40;0.40;;;13.70;99.90;;;;;;6259758;23;20388;-81
2023/09/23 01:41:03;;;;;;;1.53;1.23;;;13.80;99.90;;;;;;6261352;23;20435;-81
2023/09/23 01:43:31;;;;;;;0.53;0.53;;;13.70;99.90;;;;;;6265289;23;20381;-80
2023/09/23 01:46:03;;;;;;;0.40;0.40;;;13.70;99.90;;;;;;6259956;23;20653;-82
2023/09/23 01:48:31;;;;;;;0.57;0.57;;;13.70;99.90;;;;;;6257236;23;20487;-82
2023/09/23 01:50:58;;;;;;;0.73;0.73;;;13.70;99.90;;;;;;6254291;23;20455;-84
2023/09/23 01:53:28;;;;;;;0.60;0.60;;;13.70;99.90;;;;;;6254430;23;20578;-84
2023/09/23 01:55:55;;;;;;;1.47;1.37;;;13.60;99.90;;;;;;6254149;23;20400;-85
2023/09/23 01:58:23;;;;;;;0.40;0.40;;;13.60;99.90;;;;;;6254662;23;20712;-83
2023/09/23 02:00:51;;;;;;;0.40;0.40;;;13.60;99.90;;;;;;6254861;23;20420;-84
2023/09/23 02:03:18;;;;;;;0.50;0.50;;;13.50;99.90;;;;;;6265739;23;20692;-83
2023/09/23 02:05:46;;;;;;;0.50;0.50;;;13.50;99.90;;;;;;6266828;23;20433;-84
2023/09/23 02:08:13;;;;;;;0.40;0.40;;;13.50;99.90;;;;;;6240631;23;20419;-84
2023/09/23 02:10:44;;;;;;;0.60;0.60;;;13.50;99.90;;;;;;6259275;23;20419;-84
2023/09/23 02:13:11;;;;;;;0.40;0.40;;;13.40;99.90;;;;;;6254097;23;20726;-83
2023/09/23 02:15:39;;;;;;;2.08;1.05;;;13.40;99.90;;;;;;6253695;23;20421;-83
2023/09/23 02:18:06;;;;;;;0.57;0.57;;;13.40;99.90;;;;;;6253997;23;20202;-82
2023/09/23 02:20:34;;;;;;;0.50;0.50;;;13.30;99.90;;;;;;6254083;23;20390;-84
2023/09/23 02:23:01;;;;;;;0.83;0.83;;;13.30;99.90;;;;;;6254082;23;20389;-84
2023/09/23 02:25:28;;;;;;;0.50;0.50;;;13.20;99.90;;;;;;6254226;23;20677;-82
2023/09/23 02:27:55;;;;;;;0.40;0.40;;;13.20;99.90;;;;;;6253583;23;20183;-83
2023/09/23 02:30:23;;;;;;;1.77;1.67;;;13.10;99.90;;;;;;6254330;23;20468;-84
2023/09/23 02:32:49;;;;;;;0.60;0.60;;;13.00;99.90;;;;;;6230147;23;20174;-84
2023/09/23 02:35:17;;;;;;;0.85;0.85;;;13.00;99.90;;;;;;6254320;23;20238;-84
2023/09/23 02:37:46;;;;;;;0.60;0.60;;;12.90;99.90;;;;;;6227833;23;20235;-83
2023/09/23 02:40:16;;;;;;;1.53;1.43;;;13.00;99.90;;;;;;6227684;23;20182;-84
2023/09/23 02:42:47;;;;;;;0.93;0.90;;;12.90;99.90;;;;;;6227941;23;20645;-82
2023/09/23 02:45:16;;;;;;;2.58;2.38;;;12.90;99.90;;;;;;6253683;23;20195;-85
2023/09/23 02:47:44;;;;;;;1.25;1.15;;;12.90;99.90;;;;;;6253765;23;20239;-82
2023/09/23 02:50:13;;;;;;;0.40;0.40;;;12.80;99.90;;;;;;6261699;23;20195;-81
2023/09/23 02:52:42;;;;;;;0.40;0.40;;;12.80;99.90;;;;;;6239052;23;20179;-84
2023/09/23 02:55:12;;;;;;;0.85;0.85;;;12.90;99.90;;;;;;6253966;23;20360;-84
2023/09/23 02:57:41;;;;;;;3.80;1.92;;;12.90;99.90;;;;;;6227592;23;20480;-84
2023/09/23 03:00:23;;;;;;;1.25;1.20;;;12.90;99.90;;;;;;6253977;23;20174;-85
2023/09/23 03:02:58;;;;;;;0.52;0.52;;;12.80;99.90;;;;;;6253642;23;20374;-83
2023/09/23 03:05:31;;;;;;;0.40;0.40;;;12.90;99.90;;;;;;6252856;23;20514;-84
2023/09/23 03:07:59;;;;;;;0.63;0.63;;;12.90;99.90;;;;;;6227375;23;20206;-83
2023/09/23 03:10:41;;;;;;;3.23;0.73;;;13.00;99.90;;;;;;6227402;23;20416;-83
2023/09/23 03:13:11;;;;;;;0.52;0.52;;;13.00;99.90;;;;;;6253734;23;20374;-83
2023/09/23 03:16:08;;;;;;;0.40;0.40;;;13.00;99.90;;;;;;6254627;23;20191;-84
2023/09/23 03:18:33;;;;;;;1.43;1.33;;;13.00;99.90;;;;;;6253951;23;20187;-83
2023/09/23 03:21:08;;;;;;;1.33;0.73;;;13.10;99.90;;;;;;6251673;23;20562;-83
2023/09/23 03:23:41;;;;;;;0.55;0.55;;;13.20;99.90;;;;;;6253215;23;20704;-82
2023/09/23 03:26:09;;;;;;;2.00;0.93;;;13.20;99.90;;;;;;6252990;23;20184;-83
2023/09/23 03:28:38;;;;;;;1.07;0.90;;;13.20;99.90;;;;;;6253425;23;20373;-82
2023/09/23 03:31:09;;;;;;;7.57;2.47;;;13.30;99.90;;;;;;6253428;23;20389;-83
2023/09/23 03:33:37;;;;;;;7.47;4.67;;;13.30;99.90;;;;;;6255481;23;20377;-84
2023/09/23 03:36:05;;;;;;;2.53;2.42;;;13.40;99.90;;;;;;6253851;23;20406;-83
2023/09/23 03:38:33;;;;;;;5.53;5.15;;;13.40;99.90;;;;;;6226798;23;20237;-84
2023/09/23 03:41:02;;;;;;;7.28;6.55;;;13.40;99.90;;;;;;6253664;23;20179;-83
2023/09/23 03:43:29;;;;;;;5.10;4.40;;;13.50;99.90;;;;;;6253886;23;20321;-83
2023/09/23 03:45:56;;;;;;;2.95;2.78;;;13.50;99.90;;;;;;6254254;23;20429;-84
2023/09/23 03:48:25;;;;;;;4.13;3.75;;;13.40;99.90;;;;;;6253241;23;20398;-83
2023/09/23 03:50:53;;;;;;;2.00;1.90;;;13.40;99.90;;;;;;6254812;23;20257;-82
2023/09/23 03:53:24;;;;;;;1.60;1.52;;;13.30;99.90;;;;;;6228658;23;20406;-82
2023/09/23 03:55:54;;;;;;;0.68;0.68;;;13.40;99.90;;;;;;6255482;23;20164;-81
2023/09/23 03:58:22;;;;;;;1.70;1.60;;;13.20;99.90;;;;;;6255279;23;20175;-82
2023/09/23 04:00:49;;;;;;;0.50;0.50;;;13.20;99.90;;;;;;6252759;23;20499;-82
2023/09/23 04:03:17;;;;;;;0.40;0.40;;;13.10;99.90;;;;;;6254367;23;20175;-82
2023/09/23 04:05:54;;;;;;;0.40;0.40;;;13.20;99.90;;;;;;6252733;23;20195;-81
2023/09/23 04:08:21;;;;;;;0.63;0.63;;;13.00;99.90;;;;;;6254316;23;20373;-84
2023/09/23 04:10:48;;;;;;;1.27;1.17;;;13.00;99.90;;;;;;6254511;23;20235;-83
2023/09/23 04:13:15;;;;;;;0.40;0.40;;;12.90;99.90;;;;;;6254965;23;20714;-83
2023/09/23 04:15:42;;;;;;;0.82;0.82;;;12.80;99.90;;;;;;6253355;23;20429;-82
2023/09/23 04:18:10;;;;;;;0.60;0.60;;;12.80;99.90;;;;;;6254691;23;20242;-83
2023/09/23 04:20:37;;;;;;;0.70;0.70;;;12.70;99.90;;;;;;6254429;23;20199;-83
2023/09/23 04:23:04;;;;;;;0.70;0.60;;;12.60;99.90;;;;;;6253254;23;20393;-83
2023/09/23 04:25:31;;;;;;;0.88;0.88;;;12.60;99.90;;;;;;6254664;23;20372;-82
2023/09/23 04:27:58;;;;;;;1.65;1.55;;;12.50;99.90;;;;;;6256611;23;20207;-82
2023/09/23 04:30:26;;;;;;;1.02;0.95;;;12.50;99.90;;;;;;6261781;23;20191;-81
2023/09/23 04:32:55;;;;;;;0.70;0.68;;;12.40;99.90;;;;;;6267766;22;20174;-81
2023/09/23 04:35:22;;;;;;;0.40;0.40;;;12.50;99.90;;;;;;6254456;23;20247;-82
2023/09/23 04:37:49;;;;;;;0.40;0.40;;;12.60;99.90;;;;;;6254852;23;20180;-82
2023/09/23 04:40:18;;;;;;;0.40;0.40;;;12.60;99.90;;;;;;6254565;23;20364;-83
2023/09/23 04:42:48;;;;;;;2.95;1.15;;;12.70;99.90;;;;;;6254304;23;20214;-83
2023/09/23 04:45:15;;;;;;;0.47;0.47;;;12.50;99.90;;;;;;6254363;23;20176;-88
2023/09/23 04:47:45;;;;;;;0.55;0.55;;;12.60;99.90;;;;;;6253665;23;20376;-83
2023/09/23 04:50:13;;;;;;;0.40;0.40;;;12.60;99.90;;;;;;6252180;23;20160;-83
2023/09/23 04:52:42;;;;;;;0.45;0.45;;;12.60;99.90;;;;;;6252367;23;20242;-84
2023/09/23 04:55:09;;;;;;;0.68;0.68;;;12.70;99.90;;;;;;6255286;23;20175;-81
2023/09/23 04:57:36;;;;;;;0.70;0.70;;;12.70;99.90;;;;;;6254576;23;20180;-82
2023/09/23 05:00:04;;;;;;;0.40;0.40;;;12.80;99.90;;;;;;6254110;23;20530;-82
2023/09/23 05:02:31;;;;;;;1.42;0.98;;;12.90;99.90;;;;;;6259128;23;20276;-82
2023/09/23 05:04:58;;;;;;;0.73;0.73;;;13.00;99.90;;;;;;6267831;23;20175;-81
2023/09/23 05:07:26;;;;;;;0.40;0.40;;;13.00;99.90;;;;;;6256148;23;20196;-80
2023/09/23 05:09:55;;;;;;;1.92;1.83;;;13.10;99.90;;;;;;6227249;23;20199;-82
2023/09/23 05:12:24;;;;;;;0.88;0.88;;;13.20;99.90;;;;;;6253390;23;20187;-81
2023/09/23 05:14:51;;;;;;;0.50;0.50;;;13.20;99.90;;;;;;6253642;23;20186;-83
2023/09/23 05:17:21;;;;;;;0.65;0.65;;;13.30;99.90;;;;;;6258412;23;20385;-81
2023/09/23 05:19:48;;;;;;;2.50;1.80;;;13.30;99.90;;;;;;6254231;23;20175;-81
2023/09/23 05:22:16;;;;;;;1.40;1.30;;;13.30;99.90;;;;;;6252682;23;20423;-81
2023/09/23 05:24:47;;;;;;;2.05;1.95;;;13.40;99.90;;;;;;6255755;23;20270;-82
2023/09/23 05:27:14;;;;;;;0.60;0.57;;;13.40;99.90;;;;;;6254159;23;20204;-80
2023/09/23 05:29:44;;;;;;;0.70;0.70;;;13.40;99.90;;;;;;6253319;23;20410;-81
2023/09/23 05:32:12;;;;;;;1.90;1.80;;;13.60;99.90;;;;;;6254194;23;20392;-81
2023/09/23 05:34:40;;;;;;;0.80;0.80;;;13.80;99.90;;;;;;6254014;23;20176;-80
2023/09/23 05:37:10;;;;;;;1.33;1.33;;;14.10;99.90;;;;;;6254013;23;20397;-81
2023/09/23 05:39:44;;;;;;;0.57;0.57;;;14.40;99.90;;;;;;6252314;23;20706;-81
2023/09/23 05:42:15;;;;;;;1.20;0.83;;;14.80;99.90;;;;;;6253332;23;20381;-80
2023/09/23 05:44:44;;;;;;;0.70;0.70;;;15.00;99.90;;;;;;6252774;23;20417;-79
2023/09/23 05:47:10;;;;;;;0.60;0.60;;;15.20;99.90;;;;;;6252181;23;20796;-80
2023/09/23 05:49:38;;;;;;;3.60;2.10;;;15.30;99.90;;;;;;6252373;23;20400;-82
2023/09/23 05:52:06;;;;;;;1.33;1.33;;;15.20;99.90;;;;;;6253351;23;20385;-81
2023/09/23 05:54:33;;;;;;;0.70;0.70;;;15.10;99.90;;;;;;6254500;23;20405;-82
2023/09/23 05:57:00;;;;;;;0.73;0.73;;;15.20;99.90;;;;;;6255409;23;20371;-80
2023/09/23 05:59:27;;;;;;;1.93;1.83;;;15.30;99.90;;;;;;6253479;23;20372;-80
2023/09/23 06:01:54;;;;;;;1.20;1.10;;;15.40;99.90;;;;;;6253407;23;20389;-82
2023/09/23 06:04:22;;;;;;;0.80;0.80;;;15.40;99.90;;;;;;6251562;23;20601;-81
2023/09/23 06:06:49;;;;;;;0.40;0.40;;;15.40;99.90;;;;;;6247253;23;20614;-83
2023/09/23 06:09:16;;;;;;;0.60;0.60;;;15.20;99.90;;;;;;6248043;23;20404;-82
2023/09/23 06:11:43;;;;;;;2.03;1.93;;;15.10;99.90;;;;;;6247944;23;20400;-81
2023/09/23 06:14:11;;;;;;;0.80;0.80;;;15.10;99.90;;;;;;6248975;23;20407;-82
2023/09/23 06:16:39;;;;;;;0.63;0.63;;;15.00;99.90;;;;;;6222084;23;20415;-82
2023/09/23 06:19:06;;;;;;;0.73;0.73;;;15.00;99.90;;;;;;6248072;23;20439;-82
2023/09/23 06:21:36;;;;;;;0.83;0.83;;;15.10;99.90;;;;;;6247785;23;20395;-80
2023/09/23 06:24:03;;;;;;;0.50;0.50;;;15.30;99.90;;;;;;6248393;23;20624;-81
2023/09/23 06:26:30;;;;;;;0.80;0.80;;;15.70;99.90;;;;;;6248489;23;20437;-81
2023/09/23 06:28:57;;;;;;;0.80;0.80;;;16.30;99.90;;;;;;6249969;23;20461;-83
2023/09/23 06:31:25;;;;;;;0.70;0.70;;;16.70;99.90;;;;;;6249513;23;20400;-83
2023/09/23 06:33:52;;;;;;;0.50;0.50;;;17.00;99.90;;;;;;6250424;23;20417;-83
2023/09/23 06:36:19;;;;;;;0.70;0.70;;;17.40;99.90;;;;;;6250850;23;20444;-83
2023/09/23 06:38:45;;;;;;;1.13;1.10;;;17.70;99.90;;;;;;6258813;22;20379;-83
2023/09/23 06:41:13;;;;;;;0.80;0.80;;;17.60;99.90;;;;;;6267115;22;20375;-82
2023/09/23 06:43:40;;;;;;;0.60;0.60;;;18.00;99.90;;;;;;6266465;22;20427;-84
2023/09/23 06:46:07;;;;;;;1.53;1.43;;;18.10;99.90;;;;;;6266812;22;20434;-85
2023/09/23 06:48:35;;;;;;;0.50;0.50;;;18.20;99.90;;;;;;6260247;22;20380;-89
2023/09/23 06:51:05;;;;;;;1.73;1.63;;;18.50;99.90;;;;;;6255125;23;20372;-87
2023/09/23 06:53:34;;;;;;;0.70;0.70;;;19.10;99.90;;;;;;6258505;23;20623;-87
2023/09/23 06:56:01;;;;;;;0.70;0.70;;;19.90;99.90;;;;;;6250331;22;20534;-89
2023/09/23 06:58:34;;;;;;;1.37;1.27;;;20.90;99.90;;;;;;6267286;22;20455;-90
2023/09/23 07:01:01;;;;;;;0.77;0.77;;;21.30;99.90;;;;;;6293187;22;20588;-87
2023/09/23 07:06:06;;;;;;;2.70;1.73;;;22.20;99.90;;;;;;6229994;22;20726;-86
2023/09/23 07:08:33;;;;;;;0.70;0.70;;;22.70;99.90;;;;;;6280566;22;20435;-86
2023/09/23 07:13:42;;;;;;;2.93;2.50;;;23.40;99.90;;;;;;6254402;22;20870;-89
2023/09/23 07:18:52;;;;;;;1.50;1.40;;;22.60;99.90;;;;;;6255710;22;20422;-86
2023/09/23 07:21:20;;;;;;;0.80;0.80;;;22.30;99.90;;;;;;6241694;22;20435;-88
2023/09/23 07:29:11;;;;;;;0.83;0.83;;;21.90;99.90;;;;;;6243960;22;20419;-87
2023/09/23 07:31:40;;;;;;;0.70;0.70;;;21.70;99.90;;;;;;6265263;22;20422;-87
2023/09/23 07:34:08;;;;;;;1.63;1.37;;;21.60;99.90;;;;;;6275912;22;20694;-86
2023/09/23 07:36:38;;;;;;;2.30;1.67;;;21.60;99.90;;;;;;6270562;22;20365;-87
2023/09/23 07:39:05;;;;;;;0.70;0.70;;;21.00;99.90;;;;;;6267396;22;20384;-88
2023/09/23 07:41:34;;;;;;;12.27;4.67;;;20.70;99.90;;;;;;6289884;22;20419;-82
2023/09/23 07:44:01;;;;;;;0.90;0.90;;;20.60;99.90;;;;;;6288393;22;20943;-91
2023/09/23 07:46:30;;;;;;;1.17;1.17;;;20.70;99.90;;;;;;6262222;22;20418;-87
2023/09/23 07:48:57;;;;;;;0.70;0.70;;;20.30;99.90;;;;;;6260843;22;20414;-87
2023/09/23 07:51:24;;;;;;;1.20;1.20;;;20.40;99.90;;;;;;6279796;22;20458;-82
2023/09/23 07:53:52;;;;;;;0.60;0.60;;;20.30;99.90;;;;;;6283100;22;20398;-87
2023/09/23 07:56:19;;;;;;;1.53;1.17;;;20.00;99.90;;;;;;6282221;22;20447;-82
2023/09/23 07:58:46;;;;;;;1.40;1.40;;;19.80;99.90;;;;;;6285076;22;20400;-87
2023/09/23 08:01:13;;;;;;;0.70;0.70;;;19.60;99.90;;;;;;6256752;22;20396;-83
2023/09/23 08:03:39;;;;;;;0.70;0.70;;;19.70;99.90;;;;;;6283239;22;20402;-81
2023/09/23 08:06:06;;;;;;;0.70;0.70;;;19.70;99.90;;;;;;6258213;22;20571;-87
2023/09/23 08:08:33;;;;;;;0.67;0.67;;;19.70;99.90;;;;;;6285860;22;20909;-81
2023/09/23 08:11:00;;;;;;;1.73;1.63;;;19.60;99.90;;;;;;6284274;22;20459;-81
2023/09/23 08:13:27;;;;;;;0.67;0.67;;;19.50;99.90;;;;;;6284769;22;20393;-88
2023/09/23 08:15:58;;;;;;;0.60;0.60;;;19.50;99.90;;;;;;6283626;22;20453;-81
2023/09/23 08:18:25;;;;;;;1.70;1.60;;;19.00;99.90;;;;;;6283933;22;20381;-82
2023/09/23 08:20:59;;;;;;;1.20;1.20;;;18.90;99.90;;;;;;6283877;22;20421;-85
2023/09/23 08:23:26;;;;;;;1.33;1.27;;;18.90;99.90;;;;;;6284339;22;20419;-88
2023/09/23 08:25:54;;;;;;;0.70;0.70;;;19.00;99.90;;;;;;6285068;22;20367;-83
2023/09/23 08:28:21;;;;;;;1.00;1.00;;;19.20;99.90;;;;;;6283403;22;20437;-81
2023/09/23 08:30:50;;;;;;;0.63;0.63;;;19.10;99.90;;;;;;6286068;22;20370;-88
2023/09/23 08:33:16;;;;;;;1.67;1.57;;;18.90;99.90;;;;;;6286575;22;20392;-82
2023/09/23 08:35:54;;;;;;;1.63;1.53;;;19.10;99.90;;;;;;6290347;22;20809;-85
2023/09/23 08:38:22;;;;;;;0.60;0.60;;;18.80;99.90;;;;;;6294160;22;20422;-85
2023/09/23 08:40:52;;;;;;;0.70;0.70;;;19.00;99.90;;;;;;6264925;22;20416;-85
2023/09/23 08:43:36;;;;;;;1.50;1.40;;;18.90;99.90;;;;;;6289674;22;20375;-89
2023/09/23 08:46:11;;;;;;;1.20;1.20;;;18.90;99.90;;;;;;6263957;22;20437;-89
2023/09/23 08:48:39;;;;;;;0.70;0.70;;;19.00;99.90;;;;;;6266825;22;20409;-86
2023/09/23 08:53:45;;;;;;;0.80;0.80;;;19.70;99.90;;;;;;6285314;22;20441;-84
2023/09/23 08:56:13;;;;;;;0.70;0.70;;;20.00;99.90;;;;;;6294072;22;20398;-88
2023/09/23 08:58:52;;;;;;;0.60;0.60;;;20.20;99.90;;;;;;6267602;22;20436;-84
2023/09/23 09:01:19;;;;;;;0.70;0.70;;;20.20;99.90;;;;;;6262639;22;20819;-81
2023/09/23 09:03:47;;;;;;;0.80;0.80;;;20.00;99.90;;;;;;6262641;22;20407;-82
2023/09/23 09:06:32;;;;;;;0.60;0.60;;;20.00;99.90;;;;;;6288974;22;20592;-84
2023/09/23 09:09:02;;;;;;;0.70;0.70;;;19.70;99.90;;;;;;6286522;22;20387;-89
2023/09/23 09:11:30;;;;;;;1.10;1.00;;;19.70;99.90;;;;;;6290271;22;20602;-85
2023/09/23 09:13:59;;;;;;;0.80;0.80;;;19.70;99.90;;;;;;6261186;22;20402;-84
2023/09/23 09:16:28;;;;;;;2.20;2.10;;;19.70;99.90;;;;;;6285590;22;20367;-88
2023/09/23 09:18:55;;;;;;;0.80;0.80;;;19.60;99.90;;;;;;6287530;22;20433;-87
2023/09/23 09:21:22;;;;;;;2.20;2.10;;;19.40;99.90;;;;;;6285406;22;20397;-86
2023/09/23 09:23:52;;;;;;;0.70;0.70;;;19.30;99.90;;;;;;6290122;22;20371;-81
2023/09/23 09:26:21;;;;;;;2.50;1.63;;;19.30;99.90;;;;;;6288273;22;20352;-84
2023/09/23 09:28:48;;;;;;;1.03;1.03;;;19.30;99.90;;;;;;6288204;22;20462;-81
2023/09/23 09:31:17;;;;;;;0.70;0.70;;;19.30;99.90;;;;;;6289339;22;20576;-87
2023/09/23 09:33:47;;;;;;;0.60;0.60;;;19.40;99.90;;;;;;6289943;22;20405;-84
2023/09/23 09:36:18;;;;;;;0.67;0.67;;;19.30;99.90;;;;;;6267563;22;20363;-86
2023/09/23 09:38:52;;;;;;;0.70;0.70;;;19.50;99.90;;;;;;6295594;22;20375;-84
2023/09/23 09:41:27;;;;;;;0.87;0.87;;;19.30;99.90;;;;;;6268178;22;20360;-85
2023/09/23 09:44:00;;;;;;;1.33;1.23;;;19.20;99.90;;;;;;6291623;22;20362;-87
2023/09/23 09:46:30;;;;;;;0.60;0.60;;;19.10;99.90;;;;;;6264091;22;20407;-82
2023/09/23 09:49:01;;;;;;;0.60;0.60;;;19.00;99.90;;;;;;6288080;22;20398;-89
2023/09/23 09:51:33;;;;;;;0.80;0.80;;;19.10;99.90;;;;;;6268509;22;20396;-84
2023/09/23 09:54:01;;;;;;;1.33;1.10;;;19.20;99.90;;;;;;6294649;22;20434;-89
2023/09/23 09:56:29;;;;;;;1.27;1.17;;;19.40;99.90;;;;;;6284276;22;20410;-86
2023/09/23 09:59:00;;;;;;;0.60;0.60;;;19.50;99.90;;;;;;6266052;22;20390;-83
2023/09/23 10:01:29;;;;;;;3.47;3.30;;;19.70;99.90;;;;;;6295995;22;20398;-86
2023/09/23 10:03:56;;;;;;;1.13;1.13;;;19.90;99.90;;;;;;6285135;22;20479;-86
2023/09/23 10:06:23;;;;;;;0.60;0.60;;;20.00;99.90;;;;;;6288698;22;20684;-88
2023/09/23 10:08:53;;;;;;;0.60;0.60;;;20.10;99.90;;;;;;6291093;22;20417;-89
2023/09/23 10:11:34;;;;;;;0.67;0.67;;;20.10;99.90;;;;;;6283584;22;20422;-83
2023/09/23 10:14:16;;;;;;;0.70;0.70;;;20.00;99.90;;;;;;6291020;22;20400;-86
2023/09/23 10:16:51;;;;;;;0.70;0.70;;;20.00;99.90;;;;;;6288740;22;20383;-87
2023/09/23 10:19:34;;;;;;;0.90;0.90;;;20.00;99.90;;;;;;6262908;22;20484;-89
2023/09/23 10:22:19;;;;;;;0.80;0.80;;;20.00;99.90;;;;;;6261834;22;20695;-86
2023/09/23 10:25:08;;;;;;;1.10;1.10;;;20.10;99.90;;;;;;6282976;22;20637;-89
2023/09/23 10:27:39;;;;;;;0.77;0.77;;;20.00;99.90;;;;;;6317755;22;20385;-89
2023/09/23 10:30:06;;;;;;;0.70;0.70;;;19.90;99.90;;;;;;6317750;22;20369;-85
2023/09/23 10:32:34;;;;;;;0.70;0.70;;;19.80;99.90;;;;;;6294917;22;20671;-87
2023/09/23 10:35:02;;;;;;;0.70;0.70;;;20.00;99.90;;;;;;6321396;22;20366;-87
2023/09/23 10:37:32;;;;;;;0.90;0.90;;;20.40;99.90;;;;;;6324823;22;20404;-85
2023/09/23 10:40:05;;;;;;;2.20;1.10;;;20.40;99.90;;;;;;6319864;22;20561;-84
2023/09/23 10:42:34;;;;;;;0.63;0.63;;;20.20;99.90;;;;;;6320940;22;20366;-86
2023/09/23 10:45:01;;;;;;;0.73;0.73;;;20.20;99.90;;;;;;6319924;22;20391;-88
2023/09/23 10:47:31;;;;;;;20.23;1.30;;;20.10;99.90;;;;;;6320594;22;20417;-87
2023/09/23 10:50:08;;;;;;;0.90;0.90;;;20.10;99.90;;;;;;6296857;22;20525;-86
2023/09/23 10:52:37;;;;;;;0.60;0.60;;;20.20;99.90;;;;;;6294680;22;20367;-88
2023/09/23 10:55:08;;;;;;;0.83;0.83;;;20.40;99.90;;;;;;6273117;22;20402;-90
2023/09/23 10:57:37;;;;;;;0.60;0.60;;;20.30;99.90;;;;;;6317533;22;20469;-88
2023/09/23 11:00:25;;;;;;;0.60;0.60;;;20.40;99.90;;;;;;6296223;22;20403;-88
2023/09/23 11:02:52;;;;;;;0.70;0.70;;;20.30;99.90;;;;;;6325587;22;20372;-87
2023/09/23 11:05:24;;;;;;;0.60;0.60;;;20.30;99.90;;;;;;6298650;22;20429;-88
2023/09/23 11:10:38;;;;;;;0.90;0.90;;;20.60;99.90;;;;;;6258825;22;20544;-86
2023/09/23 11:13:09;;;;;;;2.53;0.87;;;20.90;99.90;;;;;;6283875;22;20701;-86
2023/09/23 11:15:38;;;;;;;1.07;1.07;;;20.80;99.90;;;;;;6287956;22;20459;-83
2023/09/23 11:18:16;;;;;;;0.60;0.60;;;20.60;99.90;;;;;;6227535;22;20432;-89
2023/09/23 11:21:16;;;;;;;;;;;;;;;;;;;;;
2023/09/23 11:23:54;;;;;;;0.70;0.70;;;20.40;99.90;;;;;;6297878;22;20728;-89
2023/09/23 11:26:24;;;;;;;0.70;0.70;;;20.10;99.90;;;;;;6278283;22;20426;-88
2023/09/23 11:28:54;;;;;;;0.80;0.80;;;19.80;99.90;;;;;;6285023;22;20431;-89
2023/09/23 11:31:24;;;;;;;0.70;0.70;;;19.90;99.90;;;;;;6325512;22;20678;-83
2023/09/23 11:33:51;;;;;;;0.77;0.77;;;19.90;99.90;;;;;;6317907;22;20399;-83
2023/09/23 11:39:14;;;;;;;0.63;0.63;;;19.70;99.90;;;;;;6267092;22;20651;-87
2023/09/23 11:41:57;;;;;;;0.60;0.60;;;20.00;99.90;;;;;;6291451;22;20546;-86
2023/09/23 11:44:47;;;;;;;1.03;1.03;;;20.20;99.90;;;;;;6270479;22;20382;-90
2023/09/23 11:47:14;;;;;;;1.27;1.00;;;20.30;99.90;;;;;;6260334;22;20453;-86
2023/09/23 11:49:55;;;;;;;3.70;1.00;;;20.20;99.90;;;;;;6236840;23;20363;-90
2023/09/23 11:52:32;;;;;;;0.90;0.90;;;20.20;99.90;;;;;;6192381;22;20426;-86
2023/09/23 11:55:13;;;;;;;0.60;0.60;;;20.10;99.90;;;;;;6220802;22;20410;-90
2023/09/23 11:58:06;;;;;;;0.60;0.60;;;20.20;99.90;;;;;;6267550;22;20412;-92
2023/09/23 12:00:34;;;;;;;1.20;1.20;;;20.30;99.90;;;;;;6200265;22;20430;-87
2023/09/23 12:03:03;;;;;;;0.67;0.67;;;20.20;99.90;;;;;;6179576;22;20980;-89
2023/09/23 12:06:09;;;;;;;0.93;0.93;;;20.30;99.90;;;;;;6206464;23;20785;-89
2023/09/23 12:08:41;;;;;;;2.20;2.10;;;20.40;99.90;;;;;;6228821;22;20429;-89
2023/09/23 12:11:11;;;;;;;0.70;0.70;;;20.70;99.90;;;;;;6222933;23;20649;-85
2023/09/23 12:13:38;;;;;;;1.77;1.67;;;20.50;99.90;;;;;;6237640;22;20808;-86
2023/09/23 12:16:08;;;;;;;0.80;0.80;;;20.20;99.90;;;;;;6241850;22;20454;-88
2023/09/23 12:18:38;;;;;;;0.60;0.60;;;20.40;99.90;;;;;;6222306;22;20452;-89
2023/09/23 12:21:05;;;;;;;0.70;0.70;;;20.30;99.90;;;;;;6257057;23;20412;-88
2023/09/23 12:23:43;;;;;;;2.43;2.30;;;20.20;99.90;;;;;;6254013;23;20514;-88
2023/09/23 12:28:46;;;;;;;0.60;0.60;;;20.40;99.90;;;;;;6228341;23;20444;-84
2023/09/23 12:31:20;;;;;;;1.33;1.23;;;20.30;99.90;;;;;;6231340;23;20404;-82
2023/09/23 12:33:47;;;;;;;0.80;0.80;;;20.10;99.90;;;;;;6230347;23;20465;-88
2023/09/23 12:36:24;;;;;;;0.60;0.60;;;20.00;99.90;;;;;;6203801;23;20373;-90
2023/09/23 12:39:02;;;;;;;0.70;0.70;;;19.90;99.90;;;;;;6203163;23;20655;-87
2023/09/23 12:41:37;;;;;;;0.60;0.60;;;19.80;99.90;;;;;;6200945;23;20397;-90
2023/09/23 12:44:12;;;;;;;0.60;0.60;;;19.90;99.90;;;;;;6199905;23;20349;-81
2023/09/23 12:46:38;;;;;;;0.90;0.90;;;19.90;99.90;;;;;;6222951;23;20406;-88
2023/09/23 12:49:09;;;;;;;0.70;0.70;;;19.80;99.90;;;;;;6196013;23;20405;-92
2023/09/23 12:51:48;;;;;;;0.70;0.70;;;20.00;99.90;;;;;;6205109;23;20408;-89
2023/09/23 12:54:18;;;;;;;0.70;0.70;;;20.00;99.90;;;;;;6228559;23;20368;-84
2023/09/23 12:56:45;;;;;;;1.07;1.07;;;20.10;99.90;;;;;;6177063;22;20440;-89
2023/09/23 12:59:15;;;;;;;0.50;0.50;;;20.20;99.90;;;;;;6256046;22;20476;-89
2023/09/23 13:01:43;;;;;;;0.60;0.60;;;20.30;99.90;;;;;;6262618;22;20396;-84
2023/09/23 13:04:13;;;;;;;0.60;0.60;;;20.50;99.90;;;;;;6285260;22;20359;-89
2023/09/23 13:06:41;;;;;;;0.70;0.70;;;20.70;99.90;;;;;;6259823;22;20354;-85
2023/09/23 13:09:14;;;;;;;0.60;0.60;;;20.40;99.90;;;;;;6287495;22;20457;-83
2023/09/23 13:11:42;;;;;;;0.60;0.60;;;20.30;99.90;;;;;;6285661;22;20362;-82
2023/09/23 13:14:11;;;;;;;0.67;0.67;;;20.20;99.90;;;;;;6257958;22;20403;-92
2023/09/23 13:19:28;;;;;;;0.60;0.60;;;19.90;99.90;;;;;;6231524;23;20431;-89
2023/09/23 13:21:59;;;;;;;0.60;0.60;;;19.80;99.90;;;;;;6231940;23;20433;-89
2023/09/23 13:24:31;;;;;;;0.80;0.80;;;19.90;99.90;;;;;;6236389;23;20385;-84
2023/09/23 13:26:59;;;;;;;0.60;0.60;;;19.80;99.90;;;;;;6249687;22;20497;-86
2023/09/23 13:29:26;;;;;;;0.60;0.60;;;19.60;99.90;;;;;;6294699;22;20414;-85